EST,Max TemperatureF,Mean TemperatureF,Min TemperatureF,Max Dew PointF,MeanDew PointF,Min DewpointF,Max Humidity, Mean Humidity, Min Humidity, Max Sea Level PressureIn, Mean Sea Level PressureIn, Min Sea Level PressureIn, Max VisibilityMiles, Mean VisibilityMiles, Min VisibilityMiles, Max Wind SpeedMPH, Mean Wind SpeedMPH, Max Gust SpeedMPH,PrecipitationIn, CloudCover, Events, WindDirDegrees
2013-1-1,30,21,12,19,10,3,68,60,49,30.17,30.10,30.02,10,10,2,14,7,,0.00,4,,306
2013-1-2,26,18,10,17,11,3,81,74,66,30.22,30.15,30.08,10,10,8,12,6,,0.00,6,,217
2013-1-3,32,24,15,24,15,5,76,68,62,30.19,30.14,30.08,10,7,4,15,10,,0.00,7,,231
2013-1-4,30,26,23,23,18,15,75,67,58,30.21,30.12,30.06,10,10,7,25,14,30,0.00,2,,235
2013-1-5,35,25,16,30,22,11,85,77,64,30.31,30.16,30.05,8,4,1,16,9,,0.00,4,Snow,214
2013-1-6,37,36,35,31,29,25,82,76,67,30.27,30.01,29.92,9,5,2,18,14,22,0.01,8,Rain-Snow,247
2013-1-7,35,32,30,25,23,19,72,67,61,30.40,30.30,30.18,10,9,5,22,10,30,0.00,4,,226
2013-1-8,37,30,23,26,22,18,85,75,65,30.27,30.23,30.19,5,4,3,9,8,,0.00,0,,200
2013-1-9,48,36,24,32,26,19,85,63,39,30.47,30.20,30.06,10,8,3,24,11,37,0.00,1,Rain,244
2013-1-10,42,34,25,32,26,19,85,72,55,30.59,30.46,30.20,10,9,5,12,4,,0.04,1,Rain,113
2013-1-11,60,48,37,51,41,32,93,84,67,30.18,29.91,29.77,10,6,2,18,8,23,0.64,6,Rain,158
2013-1-12,60,54,48,50,46,43,90,80,67,29.94,29.89,29.84,10,8,0,15,9,,0.01,1,Fog-Rain,206
2013-1-13,53,44,34,50,37,28,89,82,76,30.05,29.87,29.72,10,7,1,18,10,28,0.66,8,Rain,324
2013-1-14,33,27,21,27,17,14,78,66,56,30.45,30.32,30.04,10,10,10,21,13,28,0.00,6,,288
2013-1-15,30,24,17,20,16,12,81,70,54,30.45,30.36,30.16,10,9,6,9,1,,0.00,0,,201
2013-1-16,39,30,21,25,19,15,81,59,36,30.12,29.94,29.83,10,9,6,20,7,28,0.00,4,,244
2013-1-17,39,30,21,27,20,6,72,58,43,30.32,30.14,29.99,10,10,10,22,11,30,0.00,5,,300
2013-1-18,36,28,19,22,14,6,57,53,46,30.45,30.28,30.00,10,10,10,28,10,34,0.00,4,,222
2013-1-19,50,43,36,33,28,22,64,55,44,29.98,29.84,29.59,10,10,10,24,18,34,0.00,1,,217
2013-1-20,46,32,19,32,8,3,58,49,38,30.20,30.03,29.56,10,10,8,40,25,59,0.00,6,Snow,286
2013-1-21,19,12,6,13,7,-4,79,66,53,30.14,30.01,29.94,10,5,0,24,10,30,0.00,7,Snow,287
2013-1-22,12,6,0,3,-3,-11,73,61,48,30.32,30.25,30.12,10,8,1,20,12,24,0.00,5,Snow,270
2013-1-23,19,12,5,11,5,-2,81,69,58,30.31,30.17,30.07,9,6,1,14,9,18,0.00,7,Snow,233
2013-1-24,21,16,10,9,3,-3,77,61,38,30.60,30.45,30.14,10,10,9,13,8,18,0.00,2,,328
2013-1-25,21,18,16,16,13,5,86,75,62,30.50,30.15,30.01,10,3,0,10,5,,0.00,8,Snow,152
2013-1-26,28,22,17,17,14,11,86,70,53,30.47,30.26,30.04,10,8,3,13,5,,0.00,7,Snow,286
2013-1-27,32,20,9,26,17,5,88,77,58,30.50,30.36,30.13,10,4,1,20,5,,0.00,5,Rain-Snow,142
2013-1-28,45,38,32,43,35,27,93,87,75,30.15,29.98,29.86,6,2,0,16,11,24,0.55,8,Fog-Rain,218
2013-1-29,60,48,37,54,46,34,94,87,77,30.01,29.79,29.48,9,3,0,20,8,24,0.45,8,Fog-Rain,173
2013-1-30,63,57,51,55,51,48,89,83,75,29.47,29.33,29.25,10,8,2,21,12,32,0.22,7,Rain,188
2013-1-31,24,22,19,19,14,10,80,70,60,29.96,29.77,29.54,10,5,0,24,17,32,0.00,8,Snow,260